createdAt,value
2022-12-08T00:01:11.915Z,4.75
2022-12-08T00:03:38.327Z,5.13
2022-12-08T00:06:04.639Z,5.20
2022-12-08T00:08:30.967Z,5.50
2022-12-08T00:10:57.262Z,5.50
2022-12-08T00:13:23.804Z,5.10
2022-12-08T00:15:50.184Z,5.35
2022-12-08T00:18:16.431Z,4.85
2022-12-08T00:20:42.692Z,5.30
2022-12-08T00:23:09.045Z,5.53
2022-12-08T00:25:35.496Z,4.70
2022-12-08T00:28:01.892Z,5.07
2022-12-08T00:30:28.247Z,5.03
2022-12-08T00:32:54.579Z,5.22
2022-12-08T00:35:20.900Z,5.18
2022-12-08T00:37:47.295Z,5.25
2022-12-08T00:40:13.549Z,4.60
2022-12-08T00:42:40.055Z,5.13
2022-12-08T00:45:06.418Z,5.40
2022-12-08T00:47:32.736Z,4.93
2022-12-08T00:49:59.146Z,4.70
2022-12-08T00:52:25.476Z,5.10
2022-12-08T00:54:51.748Z,4.78
2022-12-08T00:57:18.164Z,5.00
2022-12-08T00:59:44.577Z,4.63
2022-12-08T01:02:10.912Z,4.63
2022-12-08T01:04:37.446Z,4.85
2022-12-08T01:07:03.749Z,5.00
2022-12-08T01:09:30.055Z,4.53
2022-12-08T01:11:56.282Z,4.68
2022-12-08T01:14:22.600Z,5.00
2022-12-08T01:16:49.051Z,4.65
2022-12-08T01:19:15.720Z,4.47
2022-12-08T01:21:42.199Z,4.53
2022-12-08T01:24:08.603Z,4.35
2022-12-08T01:26:34.899Z,4.57
2022-12-08T01:29:01.415Z,4.63
2022-12-08T01:31:27.760Z,4.10
2022-12-08T01:33:54.169Z,4.40
2022-12-08T01:36:20.455Z,4.43
2022-12-08T01:38:46.763Z,4.53
2022-12-08T01:41:13.088Z,4.25
2022-12-08T01:43:39.471Z,4.45
2022-12-08T01:46:05.799Z,4.47
2022-12-08T01:48:32.121Z,4.28
2022-12-08T01:50:58.417Z,4.47
2022-12-08T01:53:24.659Z,4.22
2022-12-08T01:55:50.981Z,4.30
2022-12-08T01:58:17.316Z,4.18
2022-12-08T02:00:43.555Z,4.72
2022-12-08T02:03:10.088Z,4.20
2022-12-08T02:05:36.504Z,4.40
2022-12-08T02:08:03.160Z,4.20
2022-12-08T02:10:29.443Z,4.22
2022-12-08T02:12:55.828Z,4.07
2022-12-08T02:15:22.410Z,4.25
2022-12-08T02:17:48.806Z,4.25
2022-12-08T02:20:15.580Z,4.15
2022-12-08T02:22:43.650Z,4.05
2022-12-08T02:25:09.993Z,3.80
2022-12-08T02:27:36.434Z,4.25
2022-12-08T02:30:03.185Z,4.32
2022-12-08T02:32:29.594Z,4.10
2022-12-08T02:34:55.969Z,3.95
2022-12-08T02:37:22.214Z,4.47
2022-12-08T02:39:48.615Z,4.15
2022-12-08T02:42:14.954Z,4.45
2022-12-08T02:44:41.264Z,3.63
2022-12-08T02:47:07.600Z,4.22
2022-12-08T02:49:33.986Z,3.67
2022-12-08T02:52:00.288Z,3.95
2022-12-08T02:54:26.654Z,4.25
2022-12-08T02:56:52.947Z,4.18
2022-12-08T02:59:19.444Z,3.75
2022-12-08T03:01:45.826Z,4.40
2022-12-08T03:04:12.253Z,4.05
2022-12-08T03:06:38.488Z,3.72
2022-12-08T03:09:04.962Z,3.72
2022-12-08T03:11:31.204Z,4.00
2022-12-08T03:13:57.511Z,3.60
2022-12-08T03:16:23.949Z,3.88
2022-12-08T03:18:50.280Z,3.67
2022-12-08T03:21:16.732Z,3.60
2022-12-08T03:23:43.103Z,3.40
2022-12-08T03:26:09.386Z,3.50
2022-12-08T03:28:35.663Z,3.47
2022-12-08T03:31:02.258Z,3.80
2022-12-08T03:33:28.750Z,3.50
2022-12-08T03:35:55.032Z,3.47
2022-12-08T03:38:21.452Z,3.65
2022-12-08T03:40:47.993Z,3.65
2022-12-08T03:43:14.244Z,3.88
2022-12-08T03:45:40.487Z,3.50
2022-12-08T03:48:07.028Z,3.25
2022-12-08T03:50:33.626Z,3.20
2022-12-08T03:52:59.932Z,3.65
2022-12-08T03:55:26.192Z,3.33
2022-12-08T03:57:52.538Z,3.45
2022-12-08T04:00:18.838Z,3.30
2022-12-08T04:02:45.211Z,3.75
2022-12-08T04:05:11.577Z,3.20
2022-12-08T04:07:37.868Z,3.20
2022-12-08T04:10:04.597Z,3.38
2022-12-08T04:12:31.439Z,3.60
2022-12-08T04:14:57.788Z,3.72
2022-12-08T04:17:24.048Z,3.85
2022-12-08T04:19:50.338Z,3.00
2022-12-08T04:22:16.668Z,4.05
2022-12-08T04:24:42.960Z,3.45
2022-12-08T04:27:09.475Z,3.42
2022-12-08T04:29:36.053Z,3.15
2022-12-08T04:32:02.461Z,3.33
2022-12-08T04:34:28.773Z,3.38
2022-12-08T04:36:55.330Z,3.30
2022-12-08T04:39:21.682Z,3.28
2022-12-08T04:41:48.010Z,3.25
2022-12-08T04:44:14.336Z,3.22
2022-12-08T04:46:43.588Z,3.35
2022-12-08T04:49:10.224Z,3.80
2022-12-08T04:51:36.828Z,3.45
2022-12-08T04:54:03.090Z,3.72
2022-12-08T04:56:29.524Z,3.40
2022-12-08T04:58:55.860Z,3.72
2022-12-08T05:01:22.217Z,3.75
2022-12-08T05:03:48.608Z,3.55
2022-12-08T05:06:15.023Z,3.47
2022-12-08T05:08:41.619Z,3.42
2022-12-08T05:11:07.998Z,3.83
2022-12-08T05:13:34.288Z,3.78
2022-12-08T05:16:00.671Z,3.92
2022-12-08T05:18:27.046Z,3.70
2022-12-08T05:20:53.442Z,3.60
2022-12-08T05:23:20.229Z,3.97
2022-12-08T05:25:46.564Z,3.63
2022-12-08T05:28:40.344Z,3.92
2022-12-08T05:30:59.125Z,3.55
2022-12-08T05:33:25.631Z,4.00
2022-12-08T05:35:51.923Z,4.20
2022-12-08T05:38:18.309Z,4.50
2022-12-08T05:40:44.577Z,4.00
2022-12-08T05:43:11.113Z,4.28
2022-12-08T05:45:37.519Z,3.60
2022-12-08T05:48:03.879Z,4.25
2022-12-08T05:50:30.195Z,3.95
2022-12-08T05:52:56.517Z,4.13
2022-12-08T05:55:22.786Z,4.07
2022-12-08T05:57:49.181Z,4.07
2022-12-08T06:00:15.525Z,4.13
2022-12-08T06:02:41.859Z,3.88
2022-12-08T06:05:08.182Z,4.25
2022-12-08T06:07:34.472Z,3.88
2022-12-08T06:10:00.761Z,4.10
2022-12-08T06:12:27.218Z,4.57
2022-12-08T06:14:53.667Z,4.15
2022-12-08T06:17:19.942Z,4.43
2022-12-08T06:19:46.191Z,4.75
2022-12-08T06:22:12.465Z,4.20
2022-12-08T06:24:38.740Z,4.60
2022-12-08T06:27:04.979Z,4.63
2022-12-08T06:29:31.287Z,4.30
2022-12-08T06:31:57.725Z,4.97
2022-12-08T06:34:24.255Z,4.47
2022-12-08T06:36:50.639Z,4.65
2022-12-08T06:39:16.991Z,4.70
2022-12-08T06:41:43.294Z,4.60
2022-12-08T06:44:09.558Z,4.80
2022-12-08T06:46:35.988Z,4.80
2022-12-08T06:49:02.343Z,5.07
2022-12-08T06:51:28.578Z,4.57
2022-12-08T06:53:54.888Z,5.05
2022-12-08T06:56:21.150Z,5.20
2022-12-08T06:58:52.137Z,5.50
2022-12-08T07:01:19.335Z,5.10
2022-12-08T07:03:45.738Z,5.20
2022-12-08T07:06:12.254Z,4.88
2022-12-08T07:08:38.511Z,4.97
2022-12-08T07:11:04.764Z,4.80
2022-12-08T07:13:31.100Z,4.88
2022-12-08T07:15:57.428Z,5.20
2022-12-08T07:18:23.676Z,5.38
2022-12-08T07:20:49.963Z,4.88
2022-12-08T07:23:16.442Z,5.13
2022-12-08T07:25:42.885Z,5.50
2022-12-08T07:28:09.309Z,5.63
2022-12-08T07:30:35.841Z,4.68
2022-12-08T07:33:02.137Z,4.72
2022-12-08T07:35:28.441Z,5.90
2022-12-08T07:37:54.780Z,5.35
2022-12-08T07:40:21.051Z,5.07
2022-12-08T07:42:47.445Z,5.25
2022-12-08T07:45:13.842Z,5.75
2022-12-08T07:47:40.180Z,5.13
2022-12-08T07:50:06.815Z,5.80
2022-12-08T07:55:09.244Z,5.32
2022-12-08T07:57:35.525Z,5.63
2022-12-08T08:00:02.334Z,5.55
2022-12-08T08:02:29.141Z,5.22
2022-12-08T08:04:55.637Z,6.38
2022-12-08T08:07:21.998Z,5.80
2022-12-08T08:09:48.296Z,5.53
2022-12-08T08:12:31.670Z,5.50
2022-12-08T08:14:58.521Z,5.70
2022-12-08T08:17:24.937Z,5.55
2022-12-08T08:19:51.356Z,5.40
2022-12-08T08:22:17.596Z,5.85
2022-12-08T08:24:45.279Z,5.47
2022-12-08T08:27:11.926Z,5.88
2022-12-08T08:29:38.364Z,5.35
2022-12-08T08:32:04.804Z,6.03
2022-12-08T08:34:31.327Z,5.82
2022-12-08T08:36:57.703Z,6.40
2022-12-08T08:39:24.142Z,5.68
2022-12-08T08:41:50.599Z,5.85
2022-12-08T08:44:17.061Z,5.93
2022-12-08T08:46:43.574Z,6.07
2022-12-08T08:49:09.987Z,5.88
2022-12-08T08:51:36.269Z,5.63
2022-12-08T08:54:02.577Z,6.88
2022-12-08T08:56:28.824Z,5.88
2022-12-08T08:58:55.268Z,5.97
2022-12-08T09:01:21.663Z,6.03
2022-12-08T09:03:48.017Z,6.85
2022-12-08T09:06:14.351Z,6.22
2022-12-08T09:08:40.673Z,6.43
2022-12-08T09:11:07.085Z,6.38
2022-12-08T09:13:33.437Z,5.82
2022-12-08T09:15:59.759Z,6.22
2022-12-08T09:18:26.093Z,6.20
2022-12-08T09:20:52.443Z,6.65
2022-12-08T09:23:18.727Z,6.32
2022-12-08T09:25:45.016Z,6.18
2022-12-08T09:28:11.368Z,6.53
2022-12-08T09:30:37.783Z,6.47
2022-12-08T09:33:04.199Z,6.82
2022-12-08T09:35:30.503Z,7.13
2022-12-08T09:37:56.769Z,7.20
2022-12-08T09:40:23.259Z,6.97
2022-12-08T09:42:49.648Z,7.70
2022-12-08T09:45:16.064Z,7.55
2022-12-08T09:47:42.402Z,7.97
2022-12-08T09:50:09.023Z,8.35
2022-12-08T09:52:35.632Z,8.38
2022-12-08T09:55:01.886Z,8.48
2022-12-08T09:57:28.159Z,9.10
2022-12-08T09:59:54.503Z,9.35
2022-12-08T10:02:20.883Z,8.95
2022-12-08T10:04:47.273Z,9.77
2022-12-08T10:07:13.627Z,9.27
2022-12-08T10:09:39.885Z,10.57
2022-12-08T10:12:06.226Z,9.20
2022-12-08T10:14:32.587Z,9.43
2022-12-08T10:16:59.158Z,10.63
2022-12-08T10:19:25.468Z,10.00
2022-12-08T10:21:51.779Z,11.05
2022-12-08T10:24:18.075Z,10.48
2022-12-08T10:26:44.604Z,10.80
2022-12-08T10:29:10.941Z,10.23
2022-12-08T10:31:37.307Z,10.82
2022-12-08T10:34:03.703Z,10.70
2022-12-08T10:36:30.003Z,10.95
2022-12-08T10:41:25.497Z,12.00
2022-12-08T10:43:51.749Z,11.50
2022-12-08T10:46:18.068Z,10.88
2022-12-08T10:48:44.403Z,11.07
2022-12-08T10:51:10.806Z,11.15
2022-12-08T10:53:37.045Z,11.55
2022-12-08T10:56:03.695Z,11.80
2022-12-08T10:58:30.194Z,11.05
2022-12-08T11:00:56.639Z,11.55
2022-12-08T11:03:22.961Z,11.30
2022-12-08T11:05:49.437Z,10.73
2022-12-08T11:08:15.716Z,11.35
2022-12-08T11:10:42.187Z,11.55
2022-12-08T11:13:08.474Z,11.32
2022-12-08T11:15:34.785Z,11.07
2022-12-08T11:18:01.185Z,11.43
2022-12-08T11:20:27.506Z,11.55
2022-12-08T11:22:53.845Z,11.98
2022-12-08T11:25:20.189Z,11.38
2022-12-08T11:27:46.645Z,12.25
2022-12-08T11:30:14.806Z,11.23
2022-12-08T11:32:41.463Z,10.98
2022-12-08T11:35:07.694Z,11.40
2022-12-08T11:37:35.178Z,11.27
2022-12-08T11:40:01.968Z,11.30
2022-12-08T11:42:28.364Z,10.98
2022-12-08T11:44:54.635Z,10.68
2022-12-08T11:47:20.965Z,11.93
2022-12-08T11:52:18.654Z,11.60
2022-12-08T11:54:44.964Z,11.77
2022-12-08T11:57:11.491Z,12.00
2022-12-08T11:59:37.745Z,11.93
2022-12-08T12:02:04.240Z,10.23
2022-12-08T12:04:30.604Z,10.55
2022-12-08T12:09:38.412Z,11.30
2022-12-08T12:12:04.774Z,11.48
2022-12-08T12:19:52.399Z,10.52
2022-12-08T12:22:18.676Z,11.27
2022-12-08T12:24:44.968Z,10.90
2022-12-08T12:27:11.345Z,11.52
2022-12-08T12:29:37.746Z,11.15
2022-12-08T12:32:04.035Z,10.20
2022-12-08T12:34:30.340Z,11.52
2022-12-08T12:36:56.801Z,11.35
2022-12-08T12:39:23.182Z,10.75
2022-12-08T12:41:49.480Z,9.75
2022-12-08T12:44:15.751Z,10.98
2022-12-08T12:46:42.023Z,9.48
2022-12-08T12:49:08.357Z,10.32
2022-12-08T12:51:34.692Z,10.45
2022-12-08T12:54:00.918Z,9.10
2022-12-08T12:59:00.936Z,10.00
2022-12-08T13:01:27.248Z,10.63
2022-12-08T13:03:53.605Z,10.50
2022-12-08T13:06:19.909Z,10.50
2022-12-08T13:08:46.272Z,9.85
2022-12-08T13:11:12.587Z,10.20
2022-12-08T13:13:38.881Z,10.43
2022-12-08T13:16:15.535Z,9.70
2022-12-08T13:18:45.185Z,9.98
2022-12-08T13:21:11.507Z,9.35
2022-12-08T13:23:37.782Z,10.23
2022-12-08T13:26:04.096Z,9.93
2022-12-08T13:28:30.355Z,10.43
2022-12-08T13:30:56.729Z,9.68
2022-12-08T13:33:23.161Z,10.13
2022-12-08T13:35:49.481Z,9.13
2022-12-08T13:38:15.913Z,9.85
2022-12-08T13:40:42.306Z,10.23
2022-12-08T13:43:08.619Z,9.15
2022-12-08T13:46:12.512Z,9.52
2022-12-08T13:48:35.234Z,9.52
2022-12-08T13:54:52.346Z,10.10
2022-12-08T13:57:03.939Z,9.02
2022-12-08T13:59:27.216Z,9.00
2022-12-08T14:01:53.615Z,9.15
2022-12-08T14:04:42.589Z,9.70
2022-12-08T14:07:06.305Z,8.82
2022-12-08T14:09:32.603Z,9.35
2022-12-08T14:11:59.376Z,9.38
2022-12-08T14:14:53.904Z,8.65
2022-12-08T14:17:12.364Z,8.93
2022-12-08T14:19:38.900Z,8.63
2022-12-08T14:22:05.482Z,8.32
2022-12-08T14:24:32.523Z,9.02
2022-12-08T14:26:58.770Z,9.60
2022-12-08T14:29:25.101Z,8.00
2022-12-08T14:31:51.384Z,9.25
2022-12-08T14:34:17.690Z,8.05
2022-12-08T14:36:43.970Z,8.43
2022-12-08T14:39:10.309Z,8.68
2022-12-08T14:41:36.843Z,8.60
2022-12-08T14:44:03.238Z,8.90
2022-12-08T14:46:29.758Z,8.65
2022-12-08T14:48:56.148Z,9.05
2022-12-08T14:51:22.516Z,9.13
2022-12-08T14:53:48.863Z,8.43
2022-12-08T14:56:15.241Z,8.73
2022-12-08T14:58:41.554Z,8.23
2022-12-08T15:01:07.947Z,8.40
2022-12-08T15:03:34.321Z,8.50
2022-12-08T15:06:00.624Z,9.18
2022-12-08T15:08:27.152Z,8.95
2022-12-08T15:10:53.661Z,8.75
2022-12-08T15:13:19.924Z,8.82
2022-12-08T15:15:46.251Z,8.88
2022-12-08T15:18:12.520Z,8.98
2022-12-08T15:20:38.832Z,8.45
2022-12-08T15:23:05.317Z,8.50
2022-12-08T15:25:31.548Z,9.65
2022-12-08T15:27:58.036Z,8.45
2022-12-08T15:32:59.514Z,9.45
2022-12-08T15:35:25.809Z,9.02
2022-12-08T15:37:52.115Z,8.65
2022-12-08T15:40:18.549Z,9.25
2022-12-08T15:42:45.037Z,8.95
2022-12-08T15:45:11.419Z,8.85
2022-12-08T15:47:37.656Z,9.07
2022-12-08T15:50:04.140Z,9.15
2022-12-08T15:52:30.770Z,10.13
2022-12-08T15:54:57.089Z,9.77
2022-12-08T15:57:53.020Z,9.73
2022-12-08T16:00:30.346Z,8.63
2022-12-08T16:05:49.998Z,8.77
2022-12-08T16:08:47.458Z,8.23
2022-12-08T16:12:03.789Z,8.50
2022-12-08T16:14:29.224Z,8.60
2022-12-08T16:16:47.704Z,9.20
2022-12-08T16:19:14.047Z,8.30
2022-12-08T16:22:29.858Z,8.85
2022-12-08T16:24:26.716Z,8.15
2022-12-08T16:29:39.563Z,8.48
2022-12-08T16:32:05.994Z,9.00
2022-12-08T16:34:32.364Z,8.82
2022-12-08T16:36:58.811Z,9.57
2022-12-08T16:39:25.300Z,8.35
2022-12-08T16:41:51.667Z,8.10
2022-12-08T16:44:17.943Z,8.70
2022-12-08T16:46:44.200Z,8.23
2022-12-08T16:51:46.580Z,8.15
2022-12-08T16:54:12.835Z,7.82
2022-12-08T16:56:39.132Z,7.43
2022-12-08T16:59:05.392Z,7.85
2022-12-08T17:01:31.737Z,7.30
2022-12-08T17:06:44.324Z,7.50
2022-12-08T17:09:10.838Z,7.03
2022-12-08T17:11:42.677Z,7.07
2022-12-08T17:14:09.821Z,6.57
2022-12-08T17:16:36.279Z,6.38
2022-12-08T17:19:02.894Z,7.38
2022-12-08T17:21:29.255Z,7.35
2022-12-08T17:23:55.629Z,6.82
2022-12-08T17:26:22.021Z,6.18
2022-12-08T17:29:03.775Z,7.07
2022-12-08T17:31:31.316Z,6.03
2022-12-08T17:33:58.013Z,6.30
2022-12-08T17:36:24.285Z,6.25
2022-12-08T17:38:50.663Z,6.40
2022-12-08T17:41:16.939Z,6.22
2022-12-08T17:43:43.283Z,6.00
2022-12-08T17:46:09.626Z,5.72
2022-12-08T17:48:36.118Z,6.18
2022-12-08T17:51:02.377Z,6.18
2022-12-08T17:53:30.672Z,5.85
2022-12-08T17:56:00.571Z,5.53
2022-12-08T17:58:27.038Z,5.93
2022-12-08T18:00:53.373Z,5.93
2022-12-08T18:03:19.637Z,6.25
2022-12-08T18:05:45.902Z,5.57
2022-12-08T18:08:12.315Z,5.80
2022-12-08T18:10:38.718Z,6.05
2022-12-08T18:18:16.650Z,73.90
2022-12-08T18:20:42.898Z,205.80
2022-12-08T18:23:09.299Z,181.60
2022-12-08T18:25:35.610Z,169.55
2022-12-08T18:28:01.899Z,164.70
2022-12-08T18:30:28.284Z,195.80
2022-12-08T18:32:57.464Z,165.68
2022-12-08T18:35:24.074Z,160.15
2022-12-08T18:37:50.391Z,143.70
2022-12-08T18:40:16.832Z,127.90
2022-12-08T18:42:43.151Z,107.35
2022-12-08T18:45:09.476Z,97.22
2022-12-08T18:47:35.704Z,110.63
2022-12-08T18:50:01.967Z,92.60
2022-12-08T18:52:32.008Z,91.15
2022-12-08T18:55:06.318Z,87.35
2022-12-08T18:57:33.376Z,83.32
2022-12-08T18:59:59.641Z,78.68
2022-12-08T19:02:25.971Z,78.43
2022-12-08T19:04:52.354Z,72.07
2022-12-08T19:07:18.871Z,72.72
2022-12-08T19:09:45.132Z,70.18
2022-12-08T19:12:11.399Z,70.43
2022-12-08T19:14:37.735Z,70.57
2022-12-08T19:17:04.052Z,67.85
2022-12-08T19:19:30.310Z,79.95
2022-12-08T19:21:56.684Z,119.53
2022-12-08T19:24:23.048Z,127.45
2022-12-08T19:26:49.609Z,125.72
2022-12-08T19:29:15.964Z,121.25
2022-12-08T19:31:42.396Z,114.38
2022-12-08T19:34:08.750Z,106.75
2022-12-08T19:36:35.066Z,105.70
2022-12-08T19:39:01.444Z,99.57
2022-12-08T19:41:27.817Z,97.32
2022-12-08T19:43:54.120Z,97.18
2022-12-08T19:46:20.859Z,94.00
2022-12-08T19:48:47.415Z,92.55
2022-12-08T19:51:13.760Z,89.82
2022-12-08T19:56:22.206Z,107.88
2022-12-08T19:58:48.556Z,137.60
2022-12-08T20:01:15.032Z,142.45
2022-12-08T20:03:41.365Z,140.63
2022-12-08T20:06:07.759Z,131.25
2022-12-08T20:08:34.072Z,127.70
2022-12-08T20:11:00.634Z,117.72
2022-12-08T20:13:26.891Z,109.18
2022-12-08T20:15:53.329Z,102.50
2022-12-08T20:18:19.835Z,97.32
2022-12-08T20:20:46.412Z,88.22
2022-12-08T20:23:12.885Z,86.13
2022-12-08T20:25:39.160Z,79.57
2022-12-08T20:28:05.438Z,76.18
2022-12-08T20:30:31.757Z,71.50
2022-12-08T20:32:58.021Z,69.65
2022-12-08T20:35:24.426Z,144.27
2022-12-08T20:37:50.706Z,220.98
2022-12-08T20:40:17.110Z,198.48
2022-12-08T20:42:43.584Z,169.45
2022-12-08T20:45:10.092Z,146.93
2022-12-08T20:47:36.812Z,132.05
2022-12-08T20:50:03.529Z,123.18
2022-12-08T20:52:29.989Z,107.47
2022-12-08T20:54:56.323Z,101.97
2022-12-08T20:57:22.731Z,95.32
2022-12-08T20:59:49.001Z,84.47
2022-12-08T21:02:15.381Z,78.72
2022-12-08T21:04:42.043Z,75.40
2022-12-08T21:07:08.623Z,71.28
2022-12-08T21:09:35.319Z,164.52
2022-12-08T21:12:01.917Z,327.02
2022-12-08T21:14:28.513Z,359.10
2022-12-08T21:16:54.934Z,353.05
2022-12-08T21:19:21.716Z,648.83
2022-12-08T21:21:48.223Z,597.80
2022-12-08T21:24:14.681Z,467.20
2022-12-08T21:26:41.035Z,399.63
2022-12-08T21:29:07.452Z,454.98
2022-12-08T21:31:33.919Z,379.38
2022-12-08T21:34:00.567Z,349.35
2022-12-08T21:36:27.164Z,372.83
2022-12-08T21:38:53.988Z,412.13
2022-12-08T21:41:20.446Z,627.60
2022-12-08T21:43:46.992Z,590.35
2022-12-08T21:46:13.799Z,484.73
2022-12-08T21:48:40.321Z,393.85
2022-12-08T21:51:07.048Z,480.13
2022-12-08T21:53:33.892Z,448.92
2022-12-08T21:56:00.311Z,585.33
2022-12-08T21:58:27.140Z,439.20
2022-12-08T22:00:53.856Z,356.92
2022-12-08T22:03:20.721Z,663.72
2022-12-08T22:05:47.512Z,892.17
2022-12-08T22:08:13.963Z,955.80
2022-12-08T22:10:40.655Z,941.65
2022-12-08T22:13:07.220Z,717.83
2022-12-08T22:15:34.152Z,856.42
2022-12-08T22:18:00.908Z,733.75
2022-12-08T22:20:27.455Z,656.53
2022-12-08T22:22:53.913Z,599.60
2022-12-08T22:25:20.332Z,594.72
2022-12-08T22:27:46.697Z,562.20
2022-12-08T22:30:13.408Z,545.20
2022-12-08T22:32:40.319Z,512.15
2022-12-08T22:35:06.817Z,557.42
2022-12-08T22:37:33.214Z,542.13
2022-12-08T22:39:59.798Z,536.70
2022-12-08T22:42:26.202Z,520.88
2022-12-08T22:44:52.771Z,505.35
2022-12-08T22:47:19.648Z,496.02
2022-12-08T22:49:46.349Z,479.25
2022-12-08T22:52:12.681Z,546.25
2022-12-08T22:54:39.110Z,553.22
2022-12-08T22:57:05.682Z,531.92
2022-12-08T22:59:32.084Z,525.47
2022-12-08T23:01:58.692Z,514.05
2022-12-08T23:04:25.296Z,500.45
2022-12-08T23:06:52.090Z,494.33
2022-12-08T23:09:18.729Z,483.13
2022-12-08T23:11:45.149Z,468.42
2022-12-08T23:14:11.445Z,461.15
2022-12-08T23:16:38.153Z,468.75
2022-12-08T23:19:04.575Z,558.35
2022-12-08T23:21:31.113Z,566.50
2022-12-08T23:23:57.741Z,561.88
2022-12-08T23:26:24.262Z,559.95
2022-12-08T23:28:50.615Z,553.15
2022-12-08T23:31:17.010Z,551.15
2022-12-08T23:33:43.779Z,548.83
2022-12-08T23:36:10.545Z,544.60
2022-12-08T23:38:36.822Z,539.08
2022-12-08T23:41:03.424Z,536.83
2022-12-08T23:43:29.973Z,535.53
2022-12-08T23:45:56.463Z,528.63
2022-12-08T23:48:22.826Z,529.03
2022-12-08T23:50:49.444Z,526.08
2022-12-08T23:53:16.109Z,516.03
2022-12-08T23:55:42.550Z,517.50
2022-12-08T23:58:09.384Z,518.63
